createdAt,value
2023-01-30T00:00:16.185Z,86.38
2023-01-30T00:03:07.117Z,86.79
2023-01-30T00:05:36.109Z,87.14
2023-01-30T00:08:05.547Z,86.41
2023-01-30T00:10:35.444Z,87.08
2023-01-30T00:13:04.795Z,86.60
2023-01-30T00:15:33.878Z,86.48
2023-01-30T00:18:03.157Z,86.55
2023-01-30T00:20:33.990Z,86.51
2023-01-30T00:23:03.298Z,87.07
2023-01-30T00:25:32.629Z,87.06
2023-01-30T00:28:02.596Z,86.42
2023-01-30T00:30:31.982Z,86.41
2023-01-30T00:33:01.450Z,86.21
2023-01-30T00:35:30.447Z,86.07
2023-01-30T00:38:01.914Z,86.55
2023-01-30T00:40:32.089Z,85.85
2023-01-30T00:43:19.397Z,86.71
2023-01-30T00:46:06.314Z,86.75
2023-01-30T00:48:36.857Z,86.71
2023-01-30T00:51:06.355Z,86.64
2023-01-30T00:53:36.930Z,86.77
2023-01-30T00:56:06.094Z,86.91
2023-01-30T00:58:35.338Z,86.15
2023-01-30T01:01:05.397Z,86.22
2023-01-30T01:03:34.788Z,86.98
2023-01-30T01:06:03.899Z,86.69
2023-01-30T01:08:33.219Z,86.17
2023-01-30T01:11:03.861Z,86.13
2023-01-30T01:13:33.187Z,86.58
2023-01-30T01:16:02.231Z,86.71
2023-01-30T01:18:32.025Z,86.55
2023-01-30T01:21:00.882Z,86.16
2023-01-30T01:23:30.058Z,86.39
2023-01-30T01:26:04.670Z,86.83
2023-01-30T01:28:34.007Z,86.14
2023-01-30T01:31:08.319Z,86.54
2023-01-30T01:33:37.673Z,86.58
2023-01-30T01:36:07.452Z,86.33
2023-01-30T01:38:37.697Z,86.26
2023-01-30T01:41:07.212Z,86.67
2023-01-30T01:43:39.705Z,86.22
2023-01-30T01:46:15.204Z,86.10
2023-01-30T01:48:49.441Z,86.41
2023-01-30T01:51:23.653Z,86.50
2023-01-30T01:53:58.111Z,86.08
2023-01-30T01:56:29.080Z,86.14
2023-01-30T01:59:03.119Z,86.40
2023-01-30T02:01:32.355Z,86.66
2023-01-30T02:04:09.167Z,86.50
2023-01-30T02:06:40.803Z,86.61
2023-01-30T02:09:12.376Z,86.08
2023-01-30T02:11:46.193Z,86.21
2023-01-30T02:14:17.408Z,86.43
2023-01-30T02:16:48.673Z,86.64
2023-01-30T02:19:32.044Z,85.91
2023-01-30T02:22:25.596Z,86.38
2023-01-30T02:25:36.665Z,86.28
2023-01-30T02:28:50.272Z,86.11
2023-01-30T02:31:29.902Z,86.31
2023-01-30T02:34:25.777Z,86.56
2023-01-30T02:37:10.408Z,86.05
2023-01-30T02:39:46.851Z,86.41
2023-01-30T02:42:24.780Z,86.46
2023-01-30T02:45:02.529Z,85.99
2023-01-30T02:47:39.641Z,86.15
2023-01-30T02:50:15.606Z,86.40
2023-01-30T02:52:45.803Z,86.52
2023-01-30T02:55:21.160Z,86.02
2023-01-30T02:57:52.304Z,86.14
2023-01-30T03:00:40.599Z,86.72
2023-01-30T03:03:33.744Z,86.19
2023-01-30T03:06:33.451Z,86.82
2023-01-30T03:09:14.720Z,86.31
2023-01-30T03:11:48.546Z,86.11
2023-01-30T03:14:25.440Z,86.30
2023-01-30T03:16:58.112Z,86.58
2023-01-30T03:19:30.793Z,86.92
2023-01-30T03:22:02.215Z,86.67
2023-01-30T03:24:31.602Z,86.18
2023-01-30T03:27:04.508Z,86.92
2023-01-30T03:29:34.174Z,86.38
2023-01-30T03:32:03.137Z,87.04
2023-01-30T03:34:33.803Z,86.65
2023-01-30T03:37:02.741Z,86.52
2023-01-30T03:39:36.510Z,87.00
2023-01-30T03:42:07.670Z,86.61
2023-01-30T03:44:36.955Z,86.45
2023-01-30T03:47:06.629Z,86.31
2023-01-30T03:49:37.363Z,86.93
2023-01-30T03:52:06.299Z,86.24
2023-01-30T03:54:35.490Z,86.45
2023-01-30T03:57:05.988Z,86.05
2023-01-30T03:59:35.906Z,86.42
2023-01-30T04:02:09.670Z,86.41
2023-01-30T04:04:40.350Z,86.20
2023-01-30T04:07:11.688Z,86.45
2023-01-30T04:09:42.596Z,86.25
2023-01-30T04:12:11.684Z,86.40
2023-01-30T04:14:48.599Z,86.11
2023-01-30T04:17:34.394Z,86.16
2023-01-30T04:20:29.236Z,86.21
2023-01-30T04:22:59.293Z,86.76
2023-01-30T04:25:29.748Z,86.59
2023-01-30T04:27:58.647Z,86.17
2023-01-30T04:30:32.369Z,86.87
2023-01-30T04:33:19.358Z,86.72
2023-01-30T04:35:55.733Z,87.00
2023-01-30T04:38:25.622Z,86.89
2023-01-30T04:40:57.021Z,86.46
2023-01-30T04:43:29.779Z,86.30
2023-01-30T04:46:05.160Z,86.87
2023-01-30T04:48:34.567Z,87.02
2023-01-30T04:51:06.926Z,86.73
2023-01-30T04:53:37.816Z,87.24
2023-01-30T04:56:08.344Z,86.67
2023-01-30T04:58:37.221Z,87.18
2023-01-30T05:01:17.731Z,86.80
2023-01-30T05:03:46.677Z,87.52
2023-01-30T05:06:17.283Z,86.77
2023-01-30T05:08:48.729Z,87.16
2023-01-30T05:11:18.413Z,87.54
2023-01-30T05:13:47.937Z,86.86
2023-01-30T05:16:18.132Z,87.72
2023-01-30T05:18:47.188Z,87.34
2023-01-30T05:21:19.875Z,87.00
2023-01-30T05:23:49.160Z,87.26
2023-01-30T05:26:18.360Z,87.83
2023-01-30T05:28:52.002Z,87.54
2023-01-30T05:31:21.275Z,87.98
2023-01-30T05:33:52.444Z,87.56
2023-01-30T05:36:24.858Z,87.79
2023-01-30T05:38:54.087Z,88.04
2023-01-30T05:41:23.261Z,87.47
2023-01-30T05:43:52.567Z,87.54
2023-01-30T05:46:22.116Z,87.55
2023-01-30T05:48:51.073Z,87.88
2023-01-30T05:51:23.746Z,87.35
2023-01-30T05:53:53.589Z,87.40
2023-01-30T05:56:23.695Z,87.21
2023-01-30T05:58:53.834Z,87.44
2023-01-30T06:01:23.711Z,87.05
2023-01-30T06:03:52.723Z,87.35
2023-01-30T06:06:23.944Z,87.46
2023-01-30T06:08:55.495Z,87.26
2023-01-30T06:11:25.654Z,87.58
2023-01-30T06:13:54.640Z,87.79
2023-01-30T06:16:23.915Z,87.34
2023-01-30T06:18:52.963Z,87.20
2023-01-30T06:21:23.542Z,87.16
2023-01-30T06:23:52.296Z,87.86
2023-01-30T06:26:21.572Z,87.58
2023-01-30T06:28:50.522Z,87.72
2023-01-30T06:31:19.797Z,88.01
2023-01-30T06:33:49.462Z,87.97
2023-01-30T06:36:18.601Z,87.93
2023-01-30T06:38:48.887Z,87.22
2023-01-30T06:41:18.204Z,87.25
2023-01-30T06:43:47.096Z,87.34
2023-01-30T06:46:16.457Z,88.06
2023-01-30T06:48:45.573Z,87.94
2023-01-30T06:51:14.896Z,87.19
2023-01-30T06:53:43.757Z,87.17
2023-01-30T06:56:14.349Z,87.20
2023-01-30T06:58:43.251Z,87.02
2023-01-30T07:01:12.440Z,87.38
2023-01-30T07:03:41.414Z,87.71
2023-01-30T07:06:12.233Z,87.44
2023-01-30T07:08:42.584Z,87.15
2023-01-30T07:11:14.439Z,87.23
2023-01-30T07:13:43.399Z,87.35
2023-01-30T07:16:12.617Z,87.34
2023-01-30T07:18:41.520Z,87.73
2023-01-30T07:21:10.856Z,87.25
2023-01-30T07:23:39.869Z,87.34
2023-01-30T07:26:08.997Z,87.89
2023-01-30T07:28:39.329Z,88.11
2023-01-30T07:31:08.742Z,87.67
2023-01-30T07:33:37.828Z,87.87
2023-01-30T07:36:07.627Z,87.44
2023-01-30T07:38:36.592Z,87.46
2023-01-30T07:41:05.928Z,87.42
2023-01-30T07:43:34.846Z,87.77
2023-01-30T07:46:05.503Z,87.50
2023-01-30T07:48:34.718Z,88.02
2023-01-30T07:51:04.553Z,87.99
2023-01-30T07:53:33.501Z,87.62
2023-01-30T07:56:07.305Z,87.47
2023-01-30T07:58:36.379Z,87.40
2023-01-30T08:01:07.551Z,88.18
2023-01-30T08:03:36.587Z,87.51
2023-01-30T08:06:06.119Z,87.80
2023-01-30T08:08:36.975Z,88.06
2023-01-30T08:11:06.861Z,87.86
2023-01-30T08:13:36.436Z,87.79
2023-01-30T08:16:08.686Z,87.67
2023-01-30T08:18:37.869Z,87.60
2023-01-30T08:21:08.454Z,87.94
2023-01-30T08:23:37.562Z,87.51
2023-01-30T08:26:07.643Z,87.72
2023-01-30T08:28:36.647Z,87.84
2023-01-30T08:31:12.263Z,87.45
2023-01-30T08:33:41.672Z,87.01
2023-01-30T08:36:11.423Z,87.78
2023-01-30T08:38:40.676Z,87.79
2023-01-30T08:41:10.065Z,87.90
2023-01-30T08:43:39.096Z,87.64
2023-01-30T08:46:10.083Z,87.51
2023-01-30T08:48:49.584Z,87.41
2023-01-30T08:51:20.034Z,87.29
2023-01-30T08:53:49.104Z,87.28
2023-01-30T08:56:18.420Z,87.79
2023-01-30T08:58:49.132Z,87.44
2023-01-30T09:01:21.086Z,88.06
2023-01-30T09:03:50.196Z,87.95
2023-01-30T09:06:19.715Z,88.03
2023-01-30T09:08:48.722Z,87.71
2023-01-30T09:11:18.596Z,87.90
2023-01-30T09:13:49.576Z,87.82
2023-01-30T09:16:20.907Z,87.71
2023-01-30T09:18:50.007Z,88.36
2023-01-30T09:21:19.485Z,88.14
2023-01-30T09:23:49.080Z,88.38
2023-01-30T09:26:19.701Z,87.92
2023-01-30T09:28:49.246Z,87.84
2023-01-30T09:31:20.176Z,87.86
2023-01-30T09:33:49.368Z,87.58
2023-01-30T09:36:18.795Z,87.43
2023-01-30T09:38:47.740Z,87.69
2023-01-30T09:41:43.835Z,87.18
2023-01-30T09:44:31.030Z,87.44
2023-01-30T09:47:10.893Z,87.11
2023-01-30T09:49:46.729Z,87.25
2023-01-30T09:52:28.274Z,86.75
2023-01-30T09:55:03.911Z,86.90
2023-01-30T09:57:33.340Z,86.66
2023-01-30T10:00:08.523Z,86.51
2023-01-30T10:02:54.583Z,86.38
2023-01-30T10:05:30.368Z,86.51
2023-01-30T10:08:22.208Z,86.00
2023-01-30T10:11:09.507Z,86.15
2023-01-30T10:13:57.711Z,85.91
2023-01-30T10:16:36.501Z,85.92
2023-01-30T10:19:35.667Z,85.57
2023-01-30T10:22:14.782Z,85.51
2023-01-30T10:24:54.966Z,85.47
2023-01-30T10:27:26.673Z,85.25
2023-01-30T10:29:59.102Z,85.22
2023-01-30T10:32:32.107Z,85.12
2023-01-30T10:35:14.915Z,85.03
2023-01-30T10:37:49.524Z,85.03
2023-01-30T10:40:25.356Z,85.24
2023-01-30T10:43:04.205Z,85.10
2023-01-30T10:45:43.697Z,84.96
2023-01-30T10:48:43.016Z,85.25
2023-01-30T10:51:26.259Z,85.16
2023-01-30T10:53:59.195Z,85.19
2023-01-30T10:56:38.392Z,85.33
2023-01-30T10:59:21.149Z,85.23
2023-01-30T11:02:00.278Z,85.34
2023-01-30T11:04:36.274Z,85.43
2023-01-30T11:07:08.821Z,85.46
2023-01-30T11:09:45.535Z,85.63
2023-01-30T11:12:16.952Z,85.62
2023-01-30T11:14:54.067Z,85.54
2023-01-30T11:17:30.506Z,85.08
2023-01-30T11:20:07.122Z,85.46
2023-01-30T11:22:39.036Z,85.01
2023-01-30T11:25:15.642Z,82.41
2023-01-30T11:27:53.109Z,82.63
2023-01-30T11:30:27.937Z,82.12
2023-01-30T11:33:12.837Z,80.59
2023-01-30T11:35:52.494Z,79.54
2023-01-30T11:38:29.331Z,80.37
2023-01-30T11:41:07.781Z,81.62
2023-01-30T11:43:40.048Z,82.33
2023-01-30T11:46:12.897Z,81.99
2023-01-30T11:49:02.567Z,81.69
2023-01-30T11:51:38.177Z,81.19
2023-01-30T11:54:15.141Z,80.34
2023-01-30T11:56:50.855Z,80.66
2023-01-30T11:59:29.223Z,80.51
2023-01-30T12:02:07.327Z,80.74
2023-01-30T12:04:37.218Z,80.29
2023-01-30T12:07:09.579Z,80.46
2023-01-30T12:09:41.139Z,80.44
2023-01-30T12:12:32.799Z,80.25
2023-01-30T12:15:18.184Z,79.27
2023-01-30T12:17:53.629Z,79.07
2023-01-30T12:20:32.134Z,78.94
2023-01-30T12:23:14.180Z,79.03
2023-01-30T12:25:53.511Z,78.67
2023-01-30T12:28:27.346Z,77.60
2023-01-30T12:31:03.763Z,77.83
2023-01-30T12:33:35.592Z,78.74
2023-01-30T12:36:12.579Z,77.82
2023-01-30T12:38:58.023Z,78.79
2023-01-30T12:41:49.450Z,79.75
2023-01-30T12:44:30.364Z,79.56
2023-01-30T12:47:14.709Z,79.42
2023-01-30T12:50:03.563Z,79.82
2023-01-30T12:52:52.657Z,79.71
2023-01-30T12:55:31.190Z,80.13
2023-01-30T12:58:07.585Z,79.54
2023-01-30T13:00:53.104Z,79.91
2023-01-30T13:03:31.697Z,78.86
2023-01-30T13:06:11.849Z,79.64
2023-01-30T13:18:50.067Z,79.02
2023-01-30T13:21:24.234Z,79.18
2023-01-30T13:24:11.560Z,79.10
2023-01-30T13:26:43.894Z,79.16
2023-01-30T13:30:03.371Z,79.23
2023-01-30T13:32:41.495Z,79.66
2023-01-30T13:35:19.831Z,80.48
2023-01-30T13:37:51.875Z,80.26
2023-01-30T13:40:24.069Z,80.29
2023-01-30T13:42:57.605Z,80.32
2023-01-30T13:45:30.925Z,80.92
2023-01-30T13:48:17.318Z,80.47
2023-01-30T13:51:07.970Z,80.60
2023-01-30T13:53:44.436Z,80.89
2023-01-30T13:56:40.327Z,81.53
2023-01-30T13:59:18.414Z,81.77
2023-01-30T14:02:10.961Z,81.16
2023-01-30T14:04:48.849Z,81.77
2023-01-30T14:07:28.008Z,81.76
2023-01-30T14:10:17.021Z,81.98
2023-01-30T14:12:48.393Z,81.87
2023-01-30T14:15:27.317Z,81.81
2023-01-30T14:18:05.429Z,82.07
2023-01-30T14:20:36.759Z,82.19
2023-01-30T14:23:20.561Z,82.41
2023-01-30T14:25:51.917Z,82.34
2023-01-30T14:28:51.576Z,82.11
2023-01-30T14:31:55.176Z,82.28
2023-01-30T14:34:43.353Z,82.47
2023-01-30T14:41:28.985Z,82.51
2023-01-30T14:43:57.904Z,82.33
2023-01-30T14:46:58.123Z,82.22
2023-01-30T14:49:29.296Z,82.36
2023-01-30T14:51:59.090Z,82.73
2023-01-30T14:54:42.073Z,82.40
2023-01-30T14:57:32.624Z,82.50
2023-01-30T15:00:16.090Z,82.89
2023-01-30T15:03:12.652Z,82.75
2023-01-30T15:05:46.711Z,83.42
2023-01-30T15:08:20.414Z,83.11
2023-01-30T15:11:05.402Z,82.86
2023-01-30T15:13:45.460Z,82.76
2023-01-30T15:16:33.010Z,83.03
2023-01-30T15:19:21.417Z,83.05
2023-01-30T15:22:04.767Z,82.84
2023-01-30T15:25:09.081Z,82.71
2023-01-30T15:27:51.997Z,83.11
2023-01-30T15:30:34.945Z,83.33
2023-01-30T15:33:22.903Z,83.87
2023-01-30T15:35:55.705Z,84.19
2023-01-30T15:38:30.182Z,83.55
2023-01-30T15:41:02.832Z,83.54
2023-01-30T15:48:16.184Z,83.66
2023-01-30T15:50:50.293Z,83.78
2023-01-30T15:53:25.052Z,83.45
2023-01-30T15:55:55.561Z,84.07
2023-01-30T15:58:26.058Z,84.69
2023-01-30T16:00:59.565Z,84.25
2023-01-30T16:03:34.366Z,84.42
2023-01-30T16:06:03.816Z,84.17
2023-01-30T16:08:34.369Z,84.37
2023-01-30T16:11:03.373Z,84.47
2023-01-30T16:13:33.410Z,84.88
2023-01-30T16:16:05.004Z,84.98
2023-01-30T16:18:39.926Z,84.92
2023-01-30T16:21:11.106Z,85.23
2023-01-30T16:23:44.077Z,85.11
2023-01-30T16:26:18.522Z,85.72
2023-01-30T16:28:47.839Z,85.44
2023-01-30T16:31:18.489Z,85.53
2023-01-30T16:33:53.655Z,85.80
2023-01-30T16:36:38.873Z,85.98
2023-01-30T16:39:27.742Z,85.98
2023-01-30T16:41:58.131Z,85.14
2023-01-30T16:44:29.161Z,85.58
2023-01-30T16:47:01.012Z,85.13
2023-01-30T16:49:50.335Z,84.98
2023-01-30T16:52:22.773Z,84.91
2023-01-30T16:54:54.380Z,84.69
2023-01-30T16:57:36.954Z,85.04
2023-01-30T17:00:10.163Z,85.31
2023-01-30T17:02:42.258Z,85.14
2023-01-30T17:05:20.738Z,85.59
2023-01-30T17:07:51.351Z,85.20
2023-01-30T17:10:53.295Z,84.94
2023-01-30T17:13:37.267Z,85.21
2023-01-30T17:16:33.676Z,85.85
2023-01-30T17:19:03.420Z,85.37
2023-01-30T17:21:38.734Z,85.35
2023-01-30T17:24:08.196Z,85.19
2023-01-30T17:26:40.869Z,85.61
2023-01-30T17:29:23.727Z,85.64
2023-01-30T17:31:59.996Z,85.42
2023-01-30T17:34:31.662Z,85.49
2023-01-30T17:37:02.320Z,85.58
2023-01-30T17:39:31.600Z,85.29
2023-01-30T17:42:00.772Z,85.50
2023-01-30T17:44:29.717Z,84.90
2023-01-30T17:46:58.965Z,84.97
2023-01-30T17:49:28.493Z,84.85
2023-01-30T17:51:59.804Z,85.20
2023-01-30T17:54:30.838Z,85.02
2023-01-30T17:57:03.575Z,85.20
2023-01-30T17:59:33.449Z,85.28
2023-01-30T18:02:02.899Z,84.87
2023-01-30T18:04:31.799Z,85.14
2023-01-30T18:07:06.526Z,85.04
2023-01-30T18:09:37.494Z,85.12
2023-01-30T18:12:07.531Z,85.01
2023-01-30T18:14:37.124Z,84.89
2023-01-30T18:17:06.696Z,84.48
2023-01-30T18:19:35.780Z,84.58
2023-01-30T18:22:05.713Z,84.37
2023-01-30T18:24:36.103Z,84.68
2023-01-30T18:27:07.326Z,84.49
2023-01-30T18:29:36.854Z,84.52
2023-01-30T18:32:06.743Z,84.78
2023-01-30T18:34:36.047Z,84.40
2023-01-30T18:37:05.502Z,84.66
2023-01-30T18:39:34.849Z,84.34
2023-01-30T18:42:07.807Z,84.60
2023-01-30T18:44:37.712Z,84.61
2023-01-30T18:47:07.492Z,84.53
2023-01-30T18:49:36.999Z,84.25
2023-01-30T18:52:06.617Z,84.63
2023-01-30T18:54:37.218Z,84.81
2023-01-30T18:57:08.222Z,84.38
2023-01-30T18:59:37.787Z,84.56
2023-01-30T19:02:08.048Z,84.32
2023-01-30T19:04:37.608Z,84.22
2023-01-30T19:07:07.178Z,84.47
2023-01-30T19:09:36.303Z,84.08
2023-01-30T19:12:25.216Z,84.17
2023-01-30T19:14:54.273Z,83.88
2023-01-30T19:17:23.511Z,83.86
2023-01-30T19:19:52.633Z,83.69
2023-01-30T19:22:22.467Z,83.72
2023-01-30T19:24:51.469Z,83.83
2023-01-30T19:27:24.578Z,83.94
2023-01-30T19:29:53.844Z,84.08
2023-01-30T19:32:23.126Z,83.95
2023-01-30T19:34:52.422Z,83.92
2023-01-30T19:37:21.912Z,84.25
2023-01-30T19:39:50.931Z,84.44
2023-01-30T19:42:20.243Z,84.41
2023-01-30T19:44:50.516Z,84.20
2023-01-30T19:47:21.882Z,83.96
2023-01-30T19:49:51.199Z,83.94
2023-01-30T19:52:20.854Z,83.93
2023-01-30T19:54:50.665Z,83.87
2023-01-30T19:57:21.091Z,83.96
2023-01-30T19:59:51.636Z,83.80
2023-01-30T20:02:21.216Z,83.71
2023-01-30T20:04:50.229Z,83.80
2023-01-30T20:07:19.655Z,83.74
2023-01-30T20:09:48.589Z,83.80
2023-01-30T20:12:18.198Z,83.91
2023-01-30T20:14:47.173Z,83.71
2023-01-30T20:17:17.860Z,83.59
2023-01-30T20:19:46.971Z,83.91
2023-01-30T20:22:16.640Z,83.36
2023-01-30T20:24:45.700Z,83.59
2023-01-30T20:27:15.179Z,83.71
2023-01-30T20:29:45.032Z,83.93
2023-01-30T20:32:14.213Z,83.55
2023-01-30T20:34:44.600Z,83.70
2023-01-30T20:37:14.152Z,83.55
2023-01-30T20:39:43.215Z,83.89
2023-01-30T20:42:12.814Z,83.26
2023-01-30T20:44:41.990Z,83.41
2023-01-30T20:47:12.050Z,82.94
2023-01-30T20:49:41.065Z,83.32
2023-01-30T20:52:11.672Z,82.92
2023-01-30T20:54:40.415Z,83.14
2023-01-30T20:57:09.929Z,83.55
2023-01-30T20:59:38.991Z,82.73
2023-01-30T21:02:08.699Z,83.01
2023-01-30T21:04:39.601Z,83.05
2023-01-30T21:07:10.245Z,83.13
2023-01-30T21:09:39.499Z,82.91
2023-01-30T21:12:09.034Z,82.84
2023-01-30T21:14:38.335Z,82.87
2023-01-30T21:17:07.843Z,82.44
2023-01-30T21:19:38.377Z,82.79
2023-01-30T21:22:13.961Z,82.57
2023-01-30T21:24:42.767Z,82.49
2023-01-30T21:27:11.911Z,82.51
2023-01-30T21:29:40.831Z,82.47
2023-01-30T21:32:10.037Z,82.25
2023-01-30T21:34:39.288Z,82.61
2023-01-30T21:37:25.922Z,82.10
2023-01-30T21:40:13.591Z,82.64
2023-01-30T21:43:00.117Z,82.09
2023-01-30T21:45:29.086Z,82.20
2023-01-30T21:47:58.267Z,82.46
2023-01-30T21:50:29.342Z,82.54
2023-01-30T21:52:58.667Z,82.21
2023-01-30T21:55:29.140Z,82.38
2023-01-30T21:57:59.018Z,82.36
2023-01-30T22:00:28.027Z,82.18
2023-01-30T22:02:57.282Z,82.12
2023-01-30T22:05:26.243Z,82.06
2023-01-30T22:07:55.565Z,82.35
2023-01-30T22:10:24.621Z,82.23
2023-01-30T22:12:55.175Z,82.18
2023-01-30T22:15:23.945Z,82.20
2023-01-30T22:17:54.432Z,82.17
2023-01-30T22:20:23.482Z,82.12
2023-01-30T22:22:52.917Z,81.99
2023-01-30T22:25:22.226Z,82.29
2023-01-30T22:27:56.170Z,81.69
2023-01-30T22:30:25.399Z,82.00
2023-01-30T22:32:55.804Z,81.96
2023-01-30T22:35:24.994Z,82.36
2023-01-30T22:37:56.132Z,81.99
2023-01-30T22:40:25.109Z,81.93
2023-01-30T22:42:56.165Z,81.91
2023-01-30T22:45:25.139Z,81.92
2023-01-30T22:47:54.507Z,81.89
2023-01-30T22:50:23.852Z,81.62
2023-01-30T22:52:53.454Z,81.65
2023-01-30T22:55:22.429Z,81.70
2023-01-30T22:57:52.351Z,82.04
2023-01-30T23:00:24.151Z,81.67
2023-01-30T23:02:53.536Z,81.43
2023-01-30T23:05:22.502Z,81.51
2023-01-30T23:07:52.061Z,81.54
2023-01-30T23:10:21.316Z,81.59
2023-01-30T23:13:15.347Z,81.35
2023-01-30T23:15:46.961Z,81.77
2023-01-30T23:18:35.998Z,81.75
2023-01-30T23:21:05.403Z,81.93
2023-01-30T23:23:34.651Z,81.84
2023-01-30T23:26:03.942Z,81.74
2023-01-30T23:28:33.821Z,81.80
2023-01-30T23:31:10.147Z,81.59
2023-01-30T23:33:40.423Z,81.74
2023-01-30T23:36:12.152Z,81.66
2023-01-30T23:38:41.753Z,81.61
2023-01-30T23:41:13.282Z,81.70
2023-01-30T23:43:45.201Z,81.80
2023-01-30T23:46:19.272Z,81.96
2023-01-30T23:48:50.676Z,81.64
2023-01-30T23:51:21.277Z,81.63
2023-01-30T23:53:51.471Z,81.64
2023-01-30T23:56:21.681Z,81.62
2023-01-30T23:58:51.551Z,81.72
